Time,TemperatureF,DewpointF,PressureIn,WindDirection,WindDirectionDegrees,WindSpeedMPH,WindSpeedGustMPH,Humidity,HourlyPrecipIn,Conditions,Clouds,dailyrainin,SoftwareType,DateUTC
2013-01-16 00:00:00,35.2,34.5,30.09,NNE,29,0.8,2.0,97,0.07,NA,NA,1.30,WeatherLink_script,2013-01-16 05:00:00,
2013-01-16 00:02:00,35.3,34.5,30.09,NNE,29,2.3,7.0,97,0.07,NA,NA,1.30,WeatherLink_script,2013-01-16 05:02:00,
2013-01-16 00:08:00,35.3,34.5,30.10,NNE,29,2.7,8.0,97,0.07,NA,NA,1.30,WeatherLink_script,2013-01-16 05:08:00,
2013-01-16 00:09:00,35.2,34.5,30.10,NNE,29,2.9,7.0,97,0.07,NA,NA,1.30,WeatherLink_script,2013-01-16 05:09:00,
2013-01-16 00:12:00,35.2,34.4,30.10,NNE,29,2.6,5.0,97,0.07,NA,NA,1.29,WeatherLink_script,2013-01-16 05:12:00,
2013-01-16 00:14:00,35.2,34.4,30.09,NNE,29,2.0,4.0,97,0.08,NA,NA,1.30,WeatherLink_script,2013-01-16 05:14:00,
2013-01-16 00:18:00,35.2,34.4,30.10,NNE,29,3.7,6.0,97,0.07,NA,NA,1.30,WeatherLink_script,2013-01-16 05:18:00,
2013-01-16 00:26:00,35.2,34.4,30.09,NNE,30,3.6,5.0,97,0.07,NA,NA,1.30,WeatherLink_script,2013-01-16 05:26:00,
2013-01-16 00:28:00,35.2,34.4,30.09,NNE,30,3.2,5.0,97,0.07,NA,NA,1.30,WeatherLink_script,2013-01-16 05:28:00,
2013-01-16 00:31:00,35.1,34.3,30.10,NNE,30,2.9,5.0,97,0.06,NA,NA,1.30,WeatherLink_script,2013-01-16 05:31:00,
2013-01-16 00:33:00,35.0,34.3,30.10,NNE,30,2.7,7.0,97,0.07,NA,NA,1.31,WeatherLink_script,2013-01-16 05:33:00,
2013-01-16 00:37:00,35.0,34.2,30.10,NNE,24,2.7,4.0,97,0.07,NA,NA,1.31,WeatherLink_script,2013-01-16 05:37:00,
2013-01-16 00:38:00,35.0,34.2,30.10,NNE,24,3.3,6.0,97,0.07,NA,NA,1.31,WeatherLink_script,2013-01-16 05:38:00,
2013-01-16 00:59:00,35.2,34.4,30.09,NNE,29,1.2,5.0,97,0.07,NA,NA,1.30,WeatherLink_script,2013-01-16 05:59:00,
2013-01-16 01:04:00,35.3,34.5,30.09,NNE,29,2.3,7.0,97,0.07,NA,NA,1.30,WeatherLink_script,2013-01-16 06:04:00,
2013-01-16 01:09:00,35.3,34.5,30.10,NNE,29,2.7,8.0,97,0.07,NA,NA,1.30,WeatherLink_script,2013-01-16 06:09:00,
2013-01-16 01:10:00,34.7,33.9,30.11,NNE,24,3.1,4.0,97,0.06,NA,NA,1.31,WeatherLink_script,2013-01-16 06:10:00,
2013-01-16 01:15:00,35.2,34.4,30.09,NNE,29,2.0,4.0,97,0.08,NA,NA,1.30,WeatherLink_script,2013-01-16 06:15:00,
2013-01-16 01:20:00,34.7,34.0,30.12,NNE,29,1.4,6.0,97,0.08,NA,NA,1.31,WeatherLink_script,2013-01-16 06:20:00,
2013-01-16 01:21:00,35.2,34.5,30.10,NNE,29,1.9,6.0,97,0.07,NA,NA,1.30,WeatherLink_script,2013-01-16 06:21:00,
2013-01-16 01:24:00,34.7,33.9,30.11,NNE,29,1.4,4.0,97,0.09,NA,NA,1.32,WeatherLink_script,2013-01-16 06:24:00,
2013-01-16 01:26:00,35.2,34.4,30.09,NNE,29,2.3,5.0,97,0.07,NA,NA,1.31,WeatherLink_script,2013-01-16 06:26:00,
2013-01-16 01:28:00,34.7,33.9,30.11,NNE,29,0.0,0.0,97,0.10,NA,NA,1.32,WeatherLink_script,2013-01-16 06:28:00,
2013-01-16 01:31:00,35.2,34.4,30.09,NNE,30,2.6,4.0,97,0.07,NA,NA,1.30,WeatherLink_script,2013-01-16 06:31:00,
2013-01-16 01:36:00,35.0,34.3,30.09,NNE,30,3.7,5.0,97,0.07,NA,NA,1.31,WeatherLink_script,2013-01-16 06:36:00,
2013-01-16 01:40:00,34.7,33.9,30.10,NE,38,2.4,4.0,97,0.10,NA,NA,1.31,WeatherLink_script,2013-01-16 06:40:00,
2013-01-16 01:41:00,35.0,34.2,30.10,NNE,23,4.4,5.0,97,0.06,NA,NA,1.31,WeatherLink_script,2013-01-16 06:41:00,
2013-01-16 01:42:00,34.7,33.9,30.10,NE,39,2.7,6.0,97,0.10,NA,NA,1.30,WeatherLink_script,2013-01-16 06:42:00,
2013-01-16 01:46:00,35.0,34.2,30.11,NNE,12,4.8,8.0,97,0.06,NA,NA,1.30,WeatherLink_script,2013-01-16 06:46:00,
2013-01-16 01:48:00,34.6,33.9,30.10,NE,38,2.1,8.0,97,0.10,NA,NA,1.29,WeatherLink_script,2013-01-16 06:48:00,
2013-01-16 01:52:00,34.9,34.1,30.11,NNE,16,3.6,5.0,97,0.06,NA,NA,1.31,WeatherLink_script,2013-01-16 06:52:00,
2013-01-16 01:57:00,34.9,34.1,30.11,NNE,25,2.9,7.0,97,0.05,NA,NA,1.31,WeatherLink_script,2013-01-16 06:57:00,
2013-01-16 02:02:00,34.8,34.0,30.10,NNE,25,3.2,7.0,97,0.05,NA,NA,1.30,WeatherLink_script,2013-01-16 07:02:00,
2013-01-16 02:07:00,34.7,33.9,30.11,NNE,27,3.5,5.0,97,0.06,NA,NA,1.30,WeatherLink_script,2013-01-16 07:07:00,
2013-01-16 02:12:00,34.7,33.9,30.11,NNE,24,3.1,4.0,97,0.06,NA,NA,1.31,WeatherLink_script,2013-01-16 07:12:00,
2013-01-16 02:17:00,34.7,33.9,30.12,NNE,29,2.2,3.0,97,0.06,NA,NA,1.30,WeatherLink_script,2013-01-16 07:17:00,
2013-01-16 02:22:00,34.7,34.0,30.12,NNE,29,1.4,6.0,97,0.08,NA,NA,1.31,WeatherLink_script,2013-01-16 07:22:00,
2013-01-16 02:27:00,34.7,33.9,30.11,NNE,29,3.4,17.0,97,0.09,NA,NA,1.32,WeatherLink_script,2013-01-16 07:27:00,
2013-01-16 02:32:00,34.7,33.9,30.10,NNE,29,2.0,7.0,97,0.10,NA,NA,1.32,WeatherLink_script,2013-01-16 07:32:00,
2013-01-16 02:37:00,34.8,34.0,30.10,NNE,29,0.5,3.0,97,0.09,NA,NA,1.31,WeatherLink_script,2013-01-16 07:37:00,
2013-01-16 02:44:00,34.7,33.9,30.10,NE,39,2.7,6.0,97,0.10,NA,NA,1.30,WeatherLink_script,2013-01-16 07:44:00,
2013-01-16 02:50:00,34.6,33.9,30.10,NE,38,2.1,8.0,97,0.10,NA,NA,1.29,WeatherLink_script,2013-01-16 07:50:00,
2013-01-16 02:55:00,34.6,33.8,30.09,NNE,16,2.2,6.0,97,0.09,NA,NA,1.27,WeatherLink_script,2013-01-16 07:55:00,
2013-01-16 03:00:00,34.5,33.7,30.10,NNE,16,3.0,6.0,97,0.09,NA,NA,1.26,WeatherLink_script,2013-01-16 08:00:00,
2013-01-16 03:05:00,34.5,33.7,30.09,NNE,21,1.2,4.0,97,0.08,NA,NA,1.24,WeatherLink_script,2013-01-16 08:05:00,
2013-01-16 03:10:00,34.4,33.7,30.09,ENE,57,2.4,5.0,97,0.07,NA,NA,1.23,WeatherLink_script,2013-01-16 08:10:00,
2013-01-16 03:16:00,34.4,33.7,30.09,ENE,69,1.5,7.0,97,0.06,NA,NA,1.21,WeatherLink_script,2013-01-16 08:16:00,
2013-01-16 03:20:00,34.5,33.7,30.05,ESE,116,2.9,8.0,97,0.00,NA,NA,1.09,WeatherLink_script,2013-01-16 08:20:00,
2013-01-16 03:21:00,34.4,33.7,30.08,ENE,68,2.7,6.0,97,0.05,NA,NA,1.20,WeatherLink_script,2013-01-16 08:21:00,
2013-01-16 03:26:00,34.4,33.7,30.04,ESE,113,2.0,3.0,97,0.00,NA,NA,1.09,WeatherLink_script,2013-01-16 08:26:00,
2013-01-16 03:27:00,34.5,33.7,30.06,ENE,78,2.6,5.0,97,0.02,NA,NA,1.19,WeatherLink_script,2013-01-16 08:27:00,
2013-01-16 03:32:00,34.4,33.7,30.05,ESE,115,2.4,5.0,97,0.01,NA,NA,1.17,WeatherLink_script,2013-01-16 08:32:00,
2013-01-16 03:38:00,34.4,33.7,30.05,ESE,116,1.4,10.0,97,0.01,NA,NA,1.16,WeatherLink_script,2013-01-16 08:38:00,
2013-01-16 03:43:00,34.4,33.7,30.06,ESE,116,0.0,0.0,97,0.00,NA,NA,1.14,WeatherLink_script,2013-01-16 08:43:00,
2013-01-16 03:49:00,34.5,33.7,30.04,ESE,116,1.0,3.0,97,0.00,NA,NA,1.13,WeatherLink_script,2013-01-16 08:49:00,
2013-01-16 03:54:00,34.4,33.7,30.05,ESE,116,0.7,5.0,97,0.00,NA,NA,1.13,WeatherLink_script,2013-01-16 08:54:00,
2013-01-16 03:59:00,34.5,33.7,30.06,ESE,116,0.5,4.0,97,0.00,NA,NA,1.12,WeatherLink_script,2013-01-16 08:59:00,
2013-01-16 04:04:00,34.5,33.7,30.07,ESE,116,0.0,0.0,97,0.00,NA,NA,1.11,WeatherLink_script,2013-01-16 09:04:00,
2013-01-16 04:09:00,34.2,33.5,30.04,ESE,107,0.0,0.0,97,0.00,NA,NA,1.08,WeatherLink_script,2013-01-16 09:09:00,
2013-01-16 04:10:00,34.5,33.7,30.05,ESE,116,0.6,2.0,97,0.00,NA,NA,1.10,WeatherLink_script,2013-01-16 09:10:00,
2013-01-16 04:13:00,34.2,33.5,30.04,ESE,107,0.6,3.0,97,0.00,NA,NA,1.08,WeatherLink_script,2013-01-16 09:13:00,
2013-01-16 04:15:00,34.4,33.7,30.06,ESE,116,0.9,2.0,97,0.00,NA,NA,1.09,WeatherLink_script,2013-01-16 09:15:00,
2013-01-16 04:17:00,34.3,33.5,30.03,ESE,107,1.2,8.0,97,0.00,NA,NA,1.08,WeatherLink_script,2013-01-16 09:17:00,
2013-01-16 04:19:00,34.3,33.5,30.03,ESE,107,1.0,4.0,97,0.00,NA,NA,1.08,WeatherLink_script,2013-01-16 09:19:00,
2013-01-16 04:20:00,34.5,33.7,30.05,ESE,116,2.9,8.0,97,0.00,NA,NA,1.09,WeatherLink_script,2013-01-16 09:20:00,
2013-01-16 04:23:00,34.3,33.5,30.03,ESE,107,1.8,5.0,97,0.00,NA,NA,1.08,WeatherLink_script,2013-01-16 09:23:00,
2013-01-16 04:25:00,34.4,33.7,30.04,ESE,113,1.7,6.0,97,0.00,NA,NA,1.09,WeatherLink_script,2013-01-16 09:25:00,
2013-01-16 04:27:00,34.2,33.5,30.02,ESE,107,2.3,5.0,97,0.00,NA,NA,1.08,WeatherLink_script,2013-01-16 09:27:00,
2013-01-16 04:30:00,34.4,33.7,30.03,ESE,113,2.3,6.0,97,0.00,NA,NA,1.09,WeatherLink_script,2013-01-16 09:30:00,
2013-01-16 04:36:00,34.3,33.6,30.03,ESE,113,1.8,3.0,97,0.00,NA,NA,1.08,WeatherLink_script,2013-01-16 09:36:00,
2013-01-16 04:42:00,34.3,33.5,30.03,ESE,113,1.8,3.0,97,0.00,NA,NA,1.08,WeatherLink_script,2013-01-16 09:42:00,
2013-01-16 04:47:00,34.3,33.5,30.03,ESE,113,4.3,32.0,97,0.00,NA,NA,1.08,WeatherLink_script,2013-01-16 09:47:00,
2013-01-16 04:52:00,34.3,33.5,30.03,ESE,107,1.6,7.0,97,0.00,NA,NA,1.08,WeatherLink_script,2013-01-16 09:52:00,
2013-01-16 04:57:00,34.3,33.5,30.03,ESE,107,2.0,10.0,97,0.00,NA,NA,1.08,WeatherLink_script,2013-01-16 09:57:00,
2013-01-16 05:02:00,34.3,33.5,30.03,ESE,107,0.4,2.0,97,0.00,NA,NA,1.08,WeatherLink_script,2013-01-16 10:02:00,
2013-01-16 05:07:00,34.2,33.5,30.03,ESE,107,0.0,0.0,97,0.00,NA,NA,1.08,WeatherLink_script,2013-01-16 10:07:00,
2013-01-16 05:08:00,34.1,33.4,30.02,ESE,107,1.0,4.0,97,0.00,NA,NA,1.08,WeatherLink_script,2013-01-16 10:08:00,
2013-01-16 05:10:00,34.2,33.4,30.03,ESE,107,0.0,0.0,97,0.00,NA,NA,1.08,WeatherLink_script,2013-01-16 10:10:00,
2013-01-16 05:12:00,34.3,33.5,30.03,ESE,107,1.4,6.0,97,0.00,NA,NA,1.08,WeatherLink_script,2013-01-16 10:12:00,
2013-01-16 05:14:00,34.2,33.4,30.03,ESE,107,0.0,0.0,97,0.00,NA,NA,1.08,WeatherLink_script,2013-01-16 10:14:00,
2013-01-16 05:17:00,34.3,33.5,30.03,ESE,107,1.2,8.0,97,0.00,NA,NA,1.08,WeatherLink_script,2013-01-16 10:17:00,
2013-01-16 05:18:00,34.1,33.4,30.03,ESE,107,0.8,3.0,97,0.00,NA,NA,1.08,WeatherLink_script,2013-01-16 10:18:00,
2013-01-16 05:20:00,34.2,33.4,30.03,ESE,107,1.7,10.0,97,0.00,NA,NA,1.08,WeatherLink_script,2013-01-16 10:20:00,
2013-01-16 05:22:00,34.3,33.5,30.03,ESE,107,0.0,0.0,97,0.00,NA,NA,1.08,WeatherLink_script,2013-01-16 10:22:00,
2013-01-16 05:25:00,34.2,33.4,30.03,ESE,107,2.6,26.0,97,0.00,NA,NA,1.08,WeatherLink_script,2013-01-16 10:25:00,
2013-01-16 05:29:00,34.2,33.4,30.03,ESE,107,1.1,3.0,97,0.00,NA,NA,1.08,WeatherLink_script,2013-01-16 10:29:00,
2013-01-16 05:30:00,34.3,33.5,30.02,ESE,107,3.2,7.0,97,0.00,NA,NA,1.08,WeatherLink_script,2013-01-16 10:30:00,
2013-01-16 05:36:00,34.1,33.4,30.03,ESE,107,0.4,2.0,97,0.00,NA,NA,1.08,WeatherLink_script,2013-01-16 10:36:00,
2013-01-16 05:41:00,34.1,33.4,30.03,ESE,107,2.6,15.0,97,0.00,NA,NA,1.08,WeatherLink_script,2013-01-16 10:41:00,
2013-01-16 05:46:00,34.2,33.4,30.03,ESE,107,1.5,3.0,97,0.00,NA,NA,1.08,WeatherLink_script,2013-01-16 10:46:00,
2013-01-16 05:51:00,34.2,33.4,30.02,ESE,107,2.8,6.0,97,0.00,NA,NA,1.08,WeatherLink_script,2013-01-16 10:51:00,
2013-01-16 05:57:00,34.2,33.4,30.03,ESE,107,2.0,5.0,97,0.00,NA,NA,1.08,WeatherLink_script,2013-01-16 10:57:00,
2013-01-16 06:02:00,34.2,33.4,30.02,ESE,107,1.8,4.0,97,0.00,NA,NA,1.08,WeatherLink_script,2013-01-16 11:02:00,
2013-01-16 06:08:00,34.2,33.4,30.02,ESE,107,2.2,7.0,97,0.00,NA,NA,1.08,WeatherLink_script,2013-01-16 11:08:00,
2013-01-16 06:13:00,34.2,33.4,30.03,ESE,107,9.8,69.0,97,0.00,NA,NA,1.08,WeatherLink_script,2013-01-16 11:13:00,
2013-01-16 06:18:00,34.2,33.4,30.03,ESE,107,0.3,1.0,97,0.00,NA,NA,1.08,WeatherLink_script,2013-01-16 11:18:00,
2013-01-16 06:24:00,34.2,33.5,30.03,ESE,107,0.9,7.0,97,0.00,NA,NA,1.08,WeatherLink_script,2013-01-16 11:24:00,
2013-01-16 06:29:00,34.2,33.4,30.03,ESE,107,0.0,0.0,97,0.00,NA,NA,1.08,WeatherLink_script,2013-01-16 11:29:00,
2013-01-16 06:34:00,34.2,33.4,30.03,ESE,107,2.4,9.0,97,0.00,NA,NA,1.08,WeatherLink_script,2013-01-16 11:34:00,
2013-01-16 06:39:00,34.2,33.4,30.02,ESE,107,2.7,8.0,97,0.00,NA,NA,1.08,WeatherLink_script,2013-01-16 11:39:00,
2013-01-16 06:44:00,34.2,33.4,30.02,ESE,107,1.4,3.0,97,0.00,NA,NA,1.08,WeatherLink_script,2013-01-16 11:44:00,
2013-01-16 06:49:00,34.1,33.4,30.02,ESE,107,0.8,2.0,97,0.00,NA,NA,1.08,WeatherLink_script,2013-01-16 11:49:00,
2013-01-16 06:54:00,34.2,33.4,30.02,East,88,0.2,1.0,97,0.00,NA,NA,1.08,WeatherLink_script,2013-01-16 11:54:00,
2013-01-16 06:59:00,34.2,33.4,30.02,East,88,1.5,4.0,97,0.00,NA,NA,1.08,WeatherLink_script,2013-01-16 11:59:00,
2013-01-16 07:04:00,34.2,33.4,30.02,East,88,0.6,4.0,97,0.00,NA,NA,1.08,WeatherLink_script,2013-01-16 12:04:00,
2013-01-16 07:09:00,34.2,33.4,30.01,East,88,1.9,5.0,97,0.00,NA,NA,1.08,WeatherLink_script,2013-01-16 12:09:00,
2013-01-16 07:14:00,34.2,33.4,30.01,East,88,0.4,1.0,97,0.00,NA,NA,1.08,WeatherLink_script,2013-01-16 12:14:00,
2013-01-16 07:19:00,34.1,33.4,30.01,East,88,3.1,7.0,97,0.00,NA,NA,1.08,WeatherLink_script,2013-01-16 12:19:00,
2013-01-16 07:25:00,34.2,33.4,30.02,East,88,2.8,7.0,97,0.00,NA,NA,1.08,WeatherLink_script,2013-01-16 12:25:00,
2013-01-16 07:30:00,34.2,33.4,30.03,East,88,0.5,2.0,97,0.00,NA,NA,1.08,WeatherLink_script,2013-01-16 12:30:00,
2013-01-16 07:35:00,34.2,33.4,30.03,East,88,0.0,0.0,97,0.00,NA,NA,1.08,WeatherLink_script,2013-01-16 12:35:00,
2013-01-16 07:41:00,34.2,33.4,30.02,East,88,2.8,7.0,97,0.01,NA,NA,1.09,WeatherLink_script,2013-01-16 12:41:00,
2013-01-16 07:46:00,34.2,33.5,30.03,East,88,0.0,0.0,97,0.02,NA,NA,1.10,WeatherLink_script,2013-01-16 12:46:00,
2013-01-16 07:51:00,34.2,33.5,30.02,East,88,2.0,3.0,97,0.02,NA,NA,1.10,WeatherLink_script,2013-01-16 12:51:00,
2013-01-16 07:56:00,34.2,33.5,30.02,East,88,0.4,2.0,97,0.02,NA,NA,1.10,WeatherLink_script,2013-01-16 12:56:00,
2013-01-16 08:01:00,34.3,33.5,30.02,East,88,1.9,3.0,97,0.02,NA,NA,1.10,WeatherLink_script,2013-01-16 13:01:00,
2013-01-16 08:06:00,34.3,33.6,30.03,East,88,0.0,0.0,97,0.03,NA,NA,1.11,WeatherLink_script,2013-01-16 13:06:00,
2013-01-16 08:12:00,34.4,33.7,30.03,East,88,0.2,1.0,97,0.03,NA,NA,1.11,WeatherLink_script,2013-01-16 13:12:00,
2013-01-16 08:17:00,34.4,33.7,30.04,East,88,1.0,5.0,97,0.03,NA,NA,1.11,WeatherLink_script,2013-01-16 13:17:00,
2013-01-16 08:22:00,34.4,33.7,30.04,East,88,0.7,7.0,97,0.03,NA,NA,1.11,WeatherLink_script,2013-01-16 13:22:00,
2013-01-16 08:28:00,34.4,33.7,30.05,East,88,0.0,0.0,97,0.03,NA,NA,1.11,WeatherLink_script,2013-01-16 13:28:00,
2013-01-16 08:33:00,34.5,33.7,30.05,East,88,0.0,0.0,97,0.03,NA,NA,1.11,WeatherLink_script,2013-01-16 13:33:00,
2013-01-16 08:38:00,34.6,33.8,30.05,East,88,0.2,1.0,97,0.03,NA,NA,1.12,WeatherLink_script,2013-01-16 13:38:00,
2013-01-16 08:44:00,34.6,33.8,30.04,East,88,0.0,0.0,97,0.03,NA,NA,1.12,WeatherLink_script,2013-01-16 13:44:00,
2013-01-16 08:49:00,34.6,33.9,30.04,East,88,0.0,0.0,97,0.02,NA,NA,1.12,WeatherLink_script,2013-01-16 13:49:00,
2013-01-16 08:54:00,34.7,34.0,30.04,East,88,0.0,0.0,97,0.03,NA,NA,1.13,WeatherLink_script,2013-01-16 13:54:00,
2013-01-16 08:59:00,34.7,33.9,30.04,East,88,0.2,1.0,97,0.03,NA,NA,1.12,WeatherLink_script,2013-01-16 13:59:00,
2013-01-16 09:04:00,34.9,34.1,30.05,East,88,0.2,1.0,97,0.02,NA,NA,1.12,WeatherLink_script,2013-01-16 14:04:00,
2013-01-16 09:09:00,34.9,34.1,30.05,East,88,0.0,0.0,97,0.02,NA,NA,1.12,WeatherLink_script,2013-01-16 14:09:00,
2013-01-16 09:14:00,35.0,34.2,30.06,East,88,0.1,1.0,97,0.02,NA,NA,1.12,WeatherLink_script,2013-01-16 14:14:00,
2013-01-16 09:19:00,35.0,34.2,30.06,East,88,0.2,1.0,97,0.02,NA,NA,1.11,WeatherLink_script,2013-01-16 14:19:00,
2013-01-16 09:24:00,35.0,34.2,30.06,East,88,0.2,1.0,97,0.02,NA,NA,1.11,WeatherLink_script,2013-01-16 14:24:00,
2013-01-16 09:29:00,35.0,34.2,30.06,East,88,0.0,0.0,97,0.03,NA,NA,1.12,WeatherLink_script,2013-01-16 14:29:00,
2013-01-16 09:35:00,35.0,34.3,30.05,East,88,0.6,2.0,97,0.03,NA,NA,1.11,WeatherLink_script,2013-01-16 14:35:00,
2013-01-16 09:40:00,35.2,34.4,30.06,East,88,0.0,0.0,97,0.02,NA,NA,1.11,WeatherLink_script,2013-01-16 14:40:00,
2013-01-16 09:45:00,35.2,34.4,30.06,East,88,0.0,0.0,97,0.03,NA,NA,1.11,WeatherLink_script,2013-01-16 14:45:00,
2013-01-16 09:51:00,35.2,34.5,30.05,East,88,0.0,0.0,97,0.03,NA,NA,1.11,WeatherLink_script,2013-01-16 14:51:00,
2013-01-16 09:56:00,35.3,34.5,30.05,East,88,0.0,0.0,97,0.03,NA,NA,1.12,WeatherLink_script,2013-01-16 14:56:00,
2013-01-16 10:01:00,35.3,34.5,30.05,East,88,0.5,2.0,97,0.03,NA,NA,1.11,WeatherLink_script,2013-01-16 15:01:00,
2013-01-16 10:06:00,35.4,34.6,30.05,East,88,0.0,0.0,97,0.03,NA,NA,1.11,WeatherLink_script,2013-01-16 15:06:00,
2013-01-16 10:11:00,35.4,34.7,30.04,East,88,0.2,1.0,97,0.04,NA,NA,1.11,WeatherLink_script,2013-01-16 15:11:00,
2013-01-16 10:16:00,35.6,34.8,30.04,East,88,0.1,1.0,97,0.04,NA,NA,1.11,WeatherLink_script,2013-01-16 15:16:00,
2013-01-16 10:21:00,35.6,34.9,30.04,East,88,0.0,0.0,97,0.04,NA,NA,1.10,WeatherLink_script,2013-01-16 15:21:00,
2013-01-16 10:26:00,35.7,34.9,30.04,East,88,1.8,3.0,97,0.04,NA,NA,1.09,WeatherLink_script,2013-01-16 15:26:00,
2013-01-16 10:31:00,35.9,35.1,30.02,East,88,1.1,2.0,97,0.03,NA,NA,1.08,WeatherLink_script,2013-01-16 15:31:00,
2013-01-16 10:36:00,36.0,35.2,30.03,East,88,1.8,3.0,97,0.03,NA,NA,1.07,WeatherLink_script,2013-01-16 15:36:00,
2013-01-16 10:41:00,36.0,35.2,30.02,East,88,1.8,3.0,97,0.02,NA,NA,1.07,WeatherLink_script,2013-01-16 15:41:00,
2013-01-16 10:47:00,36.2,35.4,30.02,East,88,2.1,3.0,97,0.02,NA,NA,1.06,WeatherLink_script,2013-01-16 15:47:00,
2013-01-16 10:52:00,36.2,35.4,30.01,East,96,2.6,4.0,97,0.01,NA,NA,1.06,WeatherLink_script,2013-01-16 15:52:00,
2013-01-16 10:57:00,36.4,35.6,30.00,East,101,2.8,4.0,97,0.01,NA,NA,1.05,WeatherLink_script,2013-01-16 15:57:00,
2013-01-16 11:03:00,36.5,35.7,30.00,ESE,108,3.3,4.0,97,0.01,NA,NA,1.05,WeatherLink_script,2013-01-16 16:03:00,
2013-01-16 11:08:00,36.6,35.8,30.00,SSE,158,2.3,4.0,97,0.01,NA,NA,1.04,WeatherLink_script,2013-01-16 16:08:00,
2013-01-16 11:13:00,36.7,35.9,30.00,SSE,158,3.2,5.0,97,0.00,NA,NA,1.04,WeatherLink_script,2013-01-16 16:13:00,
2013-01-16 11:18:00,37.0,36.2,29.99,South,169,2.8,4.0,97,0.00,NA,NA,1.04,WeatherLink_script,2013-01-16 16:18:00,
2013-01-16 11:23:00,37.3,36.5,29.98,South,170,3.5,5.0,97,0.00,NA,NA,1.04,WeatherLink_script,2013-01-16 16:23:00,
2013-01-16 11:29:00,37.6,37.1,29.97,South,177,4.6,6.0,98,0.00,NA,NA,1.03,WeatherLink_script,2013-01-16 16:29:00,
2013-01-16 11:34:00,37.6,37.1,29.97,South,185,4.7,6.0,98,0.00,NA,NA,1.03,WeatherLink_script,2013-01-16 16:34:00,
2013-01-16 11:39:00,37.5,36.8,29.97,South,180,5.7,7.0,97,0.00,NA,NA,1.03,WeatherLink_script,2013-01-16 16:39:00,
2013-01-16 11:45:00,37.5,36.7,29.96,South,179,5.7,12.0,97,0.00,NA,NA,1.02,WeatherLink_script,2013-01-16 16:45:00,
2013-01-16 11:50:00,37.5,36.7,29.95,South,179,4.6,6.0,97,0.00,NA,NA,1.02,WeatherLink_script,2013-01-16 16:50:00,
2013-01-16 11:55:00,37.5,36.7,29.95,SSW,207,4.5,6.0,97,0.00,NA,NA,1.01,WeatherLink_script,2013-01-16 16:55:00,
2013-01-16 12:00:00,37.6,36.8,29.94,SSW,207,3.5,5.0,97,0.00,NA,NA,1.01,WeatherLink_script,2013-01-16 17:00:00,
2013-01-16 12:05:00,37.5,36.8,29.94,South,187,4.8,19.0,97,0.00,NA,NA,1.00,WeatherLink_script,2013-01-16 17:05:00,
2013-01-16 12:10:00,37.6,36.8,29.93,South,186,4.9,7.0,97,0.00,NA,NA,1.00,WeatherLink_script,2013-01-16 17:10:00,
2013-01-16 12:15:00,37.6,36.8,29.92,South,190,4.3,7.0,97,0.00,NA,NA,0.99,WeatherLink_script,2013-01-16 17:15:00,
2013-01-16 12:20:00,37.7,36.9,29.91,South,182,4.3,5.0,97,0.00,NA,NA,0.99,WeatherLink_script,2013-01-16 17:20:00,
2013-01-16 12:26:00,37.6,36.8,29.91,South,189,4.8,22.0,97,0.00,NA,NA,0.99,WeatherLink_script,2013-01-16 17:26:00,
2013-01-16 12:31:00,37.4,36.7,29.91,SSW,209,2.9,6.0,97,0.00,NA,NA,0.99,WeatherLink_script,2013-01-16 17:31:00,
2013-01-16 12:37:00,37.6,36.8,29.91,SSW,195,3.9,5.0,97,0.00,NA,NA,0.98,WeatherLink_script,2013-01-16 17:37:00,
2013-01-16 12:43:00,37.6,36.8,29.91,SSW,198,4.3,6.0,97,0.00,NA,NA,0.98,WeatherLink_script,2013-01-16 17:43:00,
2013-01-16 12:48:00,37.6,36.8,29.91,SSW,193,3.5,5.0,97,0.00,NA,NA,0.98,WeatherLink_script,2013-01-16 17:48:00,
2013-01-16 12:53:00,37.6,36.8,29.92,SW,232,3.0,9.0,97,0.00,NA,NA,0.97,WeatherLink_script,2013-01-16 17:53:00,
2013-01-16 12:58:00,37.6,36.8,29.92,SW,232,3.2,7.0,97,0.00,NA,NA,0.97,WeatherLink_script,2013-01-16 17:58:00,
2013-01-16 13:03:00,37.7,37.0,29.91,South,188,4.6,6.0,97,0.00,NA,NA,0.97,WeatherLink_script,2013-01-16 18:03:00,
2013-01-16 13:08:00,38.0,37.2,29.90,South,173,3.3,5.0,97,0.00,NA,NA,0.97,WeatherLink_script,2013-01-16 18:08:00,
2013-01-16 13:13:00,38.0,37.5,29.91,SSW,209,5.4,21.0,98,0.00,NA,NA,0.97,WeatherLink_script,2013-01-16 18:13:00,
2013-01-16 13:18:00,38.2,37.4,29.90,South,183,3.6,8.0,97,0.00,NA,NA,0.97,WeatherLink_script,2013-01-16 18:18:00,
2013-01-16 13:23:00,38.2,37.4,29.90,SSW,211,3.2,10.0,97,0.00,NA,NA,0.97,WeatherLink_script,2013-01-16 18:23:00,
2013-01-16 13:29:00,38.5,37.7,29.92,SSW,198,3.1,5.0,97,0.00,NA,NA,0.97,WeatherLink_script,2013-01-16 18:29:00,
2013-01-16 13:34:00,38.6,37.8,29.90,South,189,5.2,7.0,97,0.00,NA,NA,0.97,WeatherLink_script,2013-01-16 18:34:00,
2013-01-16 13:39:00,38.9,38.4,29.89,South,183,6.1,12.0,98,0.00,NA,NA,0.96,WeatherLink_script,2013-01-16 18:39:00,
2013-01-16 13:44:00,38.9,38.4,29.89,SSW,199,4.1,7.0,98,0.00,NA,NA,0.96,WeatherLink_script,2013-01-16 18:44:00,
2013-01-16 13:49:00,38.9,38.2,29.90,SSW,209,5.9,9.0,97,0.00,NA,NA,0.96,WeatherLink_script,2013-01-16 18:49:00,
2013-01-16 13:54:00,39.1,38.3,29.88,South,178,6.3,7.0,97,0.00,NA,NA,0.96,WeatherLink_script,2013-01-16 18:54:00,
2013-01-16 13:59:00,39.2,38.4,29.87,South,177,5.9,7.0,97,0.00,NA,NA,0.95,WeatherLink_script,2013-01-16 18:59:00,
2013-01-16 14:04:00,39.4,38.9,29.87,South,179,6.6,9.0,98,0.00,NA,NA,0.95,WeatherLink_script,2013-01-16 19:04:00,
2013-01-16 14:09:00,39.4,38.9,29.86,South,187,6.0,8.0,98,0.00,NA,NA,0.95,WeatherLink_script,2013-01-16 19:09:00,
2013-01-16 14:14:00,39.5,39.0,29.87,SW,218,4.6,7.0,98,0.00,NA,NA,0.95,WeatherLink_script,2013-01-16 19:14:00,
2013-01-16 14:19:00,39.6,38.8,29.87,SW,222,4.7,7.0,97,0.00,NA,NA,0.94,WeatherLink_script,2013-01-16 19:19:00,
2013-01-16 14:25:00,39.7,38.9,29.88,SSW,211,4.5,6.0,97,0.00,NA,NA,0.94,WeatherLink_script,2013-01-16 19:25:00,
2013-01-16 14:30:00,39.7,38.9,29.88,SW,217,4.2,8.0,97,0.00,NA,NA,0.94,WeatherLink_script,2013-01-16 19:30:00,
2013-01-16 14:35:00,39.7,38.9,29.88,SW,217,4.4,9.0,97,0.00,NA,NA,0.93,WeatherLink_script,2013-01-16 19:35:00,
2013-01-16 14:41:00,39.9,39.4,29.88,SW,217,3.7,7.0,98,0.00,NA,NA,0.93,WeatherLink_script,2013-01-16 19:41:00,
2013-01-16 14:47:00,40.0,39.5,29.88,SW,217,2.1,5.0,98,0.00,NA,NA,0.92,WeatherLink_script,2013-01-16 19:47:00,
2013-01-16 14:52:00,40.0,39.2,29.88,SW,217,2.9,7.0,97,0.00,NA,NA,0.91,WeatherLink_script,2013-01-16 19:52:00,
2013-01-16 14:57:00,40.1,39.4,29.88,SW,218,2.3,7.0,97,0.00,NA,NA,0.90,WeatherLink_script,2013-01-16 19:57:00,
2013-01-16 15:03:00,40.3,39.5,29.88,SSW,194,3.7,5.0,97,0.00,NA,NA,0.90,WeatherLink_script,2013-01-16 20:03:00,
2013-01-16 15:08:00,40.4,39.9,29.88,South,191,5.5,7.0,98,0.00,NA,NA,0.89,WeatherLink_script,2013-01-16 20:08:00,
2013-01-16 15:13:00,40.6,40.1,29.88,South,189,3.6,4.0,98,0.00,NA,NA,0.89,WeatherLink_script,2013-01-16 20:13:00,
2013-01-16 15:18:00,40.6,40.1,29.89,SSW,193,4.0,5.0,98,0.00,NA,NA,0.88,WeatherLink_script,2013-01-16 20:18:00,
2013-01-16 15:23:00,40.6,39.8,29.89,South,185,3.6,5.0,97,0.00,NA,NA,0.88,WeatherLink_script,2013-01-16 20:23:00,
2013-01-16 15:29:00,40.6,39.8,29.89,South,185,3.8,7.0,97,0.00,NA,NA,0.87,WeatherLink_script,2013-01-16 20:29:00,
2013-01-16 15:34:00,40.7,39.9,29.90,SSW,194,4.2,6.0,97,0.00,NA,NA,0.87,WeatherLink_script,2013-01-16 20:34:00,
2013-01-16 15:40:00,40.7,39.9,29.89,South,186,4.7,7.0,97,0.00,NA,NA,0.86,WeatherLink_script,2013-01-16 20:40:00,
2013-01-16 15:45:00,40.9,40.1,29.89,South,178,5.4,6.0,97,0.00,NA,NA,0.85,WeatherLink_script,2013-01-16 20:45:00,
2013-01-16 15:50:00,41.0,40.2,29.89,South,169,6.7,10.0,97,0.00,NA,NA,0.85,WeatherLink_script,2013-01-16 20:50:00,
2013-01-16 15:55:00,41.0,40.2,29.90,South,178,7.3,11.0,97,0.00,NA,NA,0.84,WeatherLink_script,2013-01-16 20:55:00,
2013-01-16 16:00:00,41.0,40.2,29.89,South,191,6.0,7.0,97,0.00,NA,NA,0.83,WeatherLink_script,2013-01-16 21:00:00,
2013-01-16 16:05:00,41.0,40.2,29.90,South,175,6.1,7.0,97,0.00,NA,NA,0.82,WeatherLink_script,2013-01-16 21:05:00,
2013-01-16 16:10:00,41.1,40.3,29.89,South,181,5.1,7.0,97,0.00,NA,NA,0.81,WeatherLink_script,2013-01-16 21:10:00,
2013-01-16 16:15:00,41.1,40.4,29.89,South,177,4.7,6.0,97,0.00,NA,NA,0.80,WeatherLink_script,2013-01-16 21:15:00,
2013-01-16 16:20:00,41.2,40.4,29.89,South,186,4.9,7.0,97,0.00,NA,NA,0.79,WeatherLink_script,2013-01-16 21:20:00,
2013-01-16 16:26:00,41.2,40.4,29.90,South,180,4.5,7.0,97,0.00,NA,NA,0.78,WeatherLink_script,2013-01-16 21:26:00,
2013-01-16 16:31:00,41.3,40.5,29.90,SSW,197,4.1,6.0,97,0.00,NA,NA,0.77,WeatherLink_script,2013-01-16 21:31:00,
2013-01-16 16:37:00,41.3,40.5,29.89,SSE,163,5.8,9.0,97,0.00,NA,NA,0.76,WeatherLink_script,2013-01-16 21:37:00,
2013-01-16 16:42:00,41.3,40.5,29.90,SSE,164,5.0,7.0,97,0.00,NA,NA,0.76,WeatherLink_script,2013-01-16 21:42:00,
2013-01-16 16:48:00,41.3,40.5,29.91,South,186,5.1,7.0,97,0.00,NA,NA,0.75,WeatherLink_script,2013-01-16 21:48:00,
2013-01-16 16:53:00,41.4,40.6,29.90,SSW,198,4.6,9.0,97,0.00,NA,NA,0.74,WeatherLink_script,2013-01-16 21:53:00,
2013-01-16 16:58:00,41.5,40.7,29.91,SSW,198,1.6,9.0,97,0.00,NA,NA,0.73,WeatherLink_script,2013-01-16 21:58:00,
2013-01-16 17:03:00,41.5,40.7,29.93,SSW,198,3.1,7.0,97,0.00,NA,NA,0.72,WeatherLink_script,2013-01-16 22:03:00,
2013-01-16 17:08:00,41.5,40.7,29.94,SSW,193,3.6,6.0,97,0.01,NA,NA,0.72,WeatherLink_script,2013-01-16 22:08:00,
2013-01-16 17:13:00,41.4,40.6,29.94,South,189,3.9,7.0,97,0.01,NA,NA,0.72,WeatherLink_script,2013-01-16 22:13:00,
2013-01-16 17:18:00,41.5,40.7,29.93,ESE,109,2.8,6.0,97,0.01,NA,NA,0.71,WeatherLink_script,2013-01-16 22:18:00,
2013-01-16 17:23:00,41.4,40.6,29.94,ESE,105,6.1,21.0,97,0.01,NA,NA,0.70,WeatherLink_script,2013-01-16 22:23:00,
2013-01-16 17:28:00,41.6,40.8,29.95,NNE,24,1.9,7.0,97,0.01,NA,NA,0.69,WeatherLink_script,2013-01-16 22:28:00,
2013-01-16 17:34:00,41.6,40.8,29.94,East,97,4.4,8.0,97,0.01,NA,NA,0.68,WeatherLink_script,2013-01-16 22:34:00,
2013-01-16 17:39:00,41.6,40.8,29.95,East,85,4.2,7.0,97,0.01,NA,NA,0.68,WeatherLink_script,2013-01-16 22:39:00,
2013-01-16 17:44:00,41.6,40.8,29.96,East,85,0.8,2.0,97,0.01,NA,NA,0.67,WeatherLink_script,2013-01-16 22:44:00,
2013-01-16 17:49:00,41.6,40.8,29.95,East,85,3.0,6.0,97,0.01,NA,NA,0.67,WeatherLink_script,2013-01-16 22:49:00,
2013-01-16 17:54:00,41.6,40.8,29.95,East,85,0.4,1.0,97,0.01,NA,NA,0.66,WeatherLink_script,2013-01-16 22:54:00,
2013-01-16 17:59:00,41.6,40.8,29.95,East,85,0.0,0.0,97,0.01,NA,NA,0.65,WeatherLink_script,2013-01-16 22:59:00,
2013-01-16 18:04:00,41.6,40.8,29.95,East,85,4.3,7.0,97,0.01,NA,NA,0.65,WeatherLink_script,2013-01-16 23:04:00,
2013-01-16 18:09:00,41.6,40.8,29.95,East,89,1.1,5.0,97,0.00,NA,NA,0.64,WeatherLink_script,2013-01-16 23:09:00,
2013-01-16 18:14:00,41.6,40.8,29.96,East,89,1.2,4.0,97,0.00,NA,NA,0.64,WeatherLink_script,2013-01-16 23:14:00,
2013-01-16 18:20:00,41.6,40.8,29.96,NE,48,5.1,7.0,97,0.00,NA,NA,0.64,WeatherLink_script,2013-01-16 23:20:00,
2013-01-16 18:26:00,41.4,40.6,29.96,NNE,29,1.9,5.0,97,0.00,NA,NA,0.63,WeatherLink_script,2013-01-16 23:26:00,
2013-01-16 18:32:00,41.3,40.5,29.95,NE,47,4.3,6.0,97,0.01,NA,NA,0.64,WeatherLink_script,2013-01-16 23:32:00,
2013-01-16 18:38:00,41.2,40.1,29.96,NE,45,3.5,6.0,96,0.01,NA,NA,0.64,WeatherLink_script,2013-01-16 23:38:00,
2013-01-16 18:43:00,41.0,39.9,29.95,East,87,3.5,6.0,96,0.01,NA,NA,0.64,WeatherLink_script,2013-01-16 23:43:00,
2013-01-16 18:48:00,40.9,39.9,29.96,East,100,4.4,6.0,96,0.01,NA,NA,0.64,WeatherLink_script,2013-01-16 23:48:00,
2013-01-16 18:53:00,40.9,40.1,29.97,ENE,78,4.2,7.0,97,0.01,NA,NA,0.63,WeatherLink_script,2013-01-16 23:53:00,
2013-01-16 18:58:00,40.8,40.0,29.97,NE,50,3.9,6.0,97,0.01,NA,NA,0.63,WeatherLink_script,2013-01-16 23:58:00,
2013-01-16 19:03:00,40.7,39.9,29.96,NE,52,4.0,7.0,97,0.02,NA,NA,0.64,WeatherLink_script,2013-01-17 00:03:00,
2013-01-16 19:08:00,40.7,39.9,29.97,NE,52,5.2,7.0,97,0.02,NA,NA,0.63,WeatherLink_script,2013-01-17 00:08:00,
2013-01-16 19:13:00,40.6,39.9,29.97,NE,52,4.6,7.0,97,0.02,NA,NA,0.63,WeatherLink_script,2013-01-17 00:13:00,
2013-01-16 19:18:00,40.6,39.8,29.98,NNE,31,3.2,5.0,97,0.02,NA,NA,0.63,WeatherLink_script,2013-01-17 00:18:00,
2013-01-16 19:23:00,40.6,39.8,29.98,North,355,4.8,6.0,97,0.02,NA,NA,0.62,WeatherLink_script,2013-01-17 00:23:00,
2013-01-16 19:29:00,40.6,39.8,29.98,North,359,0.5,2.0,97,0.02,NA,NA,0.62,WeatherLink_script,2013-01-17 00:29:00,
2013-01-16 19:35:00,40.5,39.7,29.99,North,359,3.7,7.0,97,0.01,NA,NA,0.62,WeatherLink_script,2013-01-17 00:35:00,
2013-01-16 19:41:00,40.4,39.6,29.98,North,359,3.4,6.0,97,0.01,NA,NA,0.61,WeatherLink_script,2013-01-17 00:41:00,
2013-01-16 19:47:00,40.4,39.6,29.97,East,81,4.7,7.0,97,0.01,NA,NA,0.61,WeatherLink_script,2013-01-17 00:47:00,
2013-01-16 19:52:00,40.4,39.6,29.98,East,81,0.5,2.0,97,0.01,NA,NA,0.61,WeatherLink_script,2013-01-17 00:52:00,
2013-01-16 19:57:00,40.3,39.5,29.97,East,81,0.5,3.0,97,0.01,NA,NA,0.60,WeatherLink_script,2013-01-17 00:57:00,
2013-01-16 20:02:00,40.3,39.6,29.97,East,81,1.0,4.0,97,0.00,NA,NA,0.60,WeatherLink_script,2013-01-17 01:02:00,
2013-01-16 20:07:00,40.4,39.6,29.97,East,81,0.0,0.0,97,0.00,NA,NA,0.59,WeatherLink_script,2013-01-17 01:07:00,
2013-01-16 20:12:00,40.4,39.6,29.97,East,81,0.1,1.0,97,0.00,NA,NA,0.59,WeatherLink_script,2013-01-17 01:12:00,
2013-01-16 20:17:00,40.3,39.5,29.97,East,81,0.2,2.0,97,0.00,NA,NA,0.59,WeatherLink_script,2013-01-17 01:17:00,
2013-01-16 20:22:00,40.3,39.5,29.97,East,81,0.3,2.0,97,0.00,NA,NA,0.58,WeatherLink_script,2013-01-17 01:22:00,
2013-01-16 20:27:00,40.3,39.5,29.97,East,81,0.0,0.0,97,0.00,NA,NA,0.58,WeatherLink_script,2013-01-17 01:27:00,
2013-01-16 20:32:00,40.3,39.5,29.98,East,81,0.6,3.0,97,0.00,NA,NA,0.58,WeatherLink_script,2013-01-17 01:32:00,
2013-01-16 20:37:00,40.3,39.5,29.98,East,81,0.3,1.0,97,0.00,NA,NA,0.57,WeatherLink_script,2013-01-17 01:37:00,
2013-01-16 20:42:00,40.3,39.5,29.98,East,81,0.7,1.0,97,0.00,NA,NA,0.57,WeatherLink_script,2013-01-17 01:42:00,
2013-01-16 20:47:00,40.3,39.5,29.98,East,81,7.0,26.0,97,0.00,NA,NA,0.56,WeatherLink_script,2013-01-17 01:47:00,
2013-01-16 20:52:00,40.3,39.5,29.98,East,81,0.4,2.0,97,0.00,NA,NA,0.56,WeatherLink_script,2013-01-17 01:52:00,
2013-01-16 20:57:00,40.3,39.5,29.99,East,81,0.0,0.0,97,0.00,NA,NA,0.55,WeatherLink_script,2013-01-17 01:57:00,
2013-01-16 21:02:00,40.3,39.5,29.99,East,81,0.0,0.0,97,0.00,NA,NA,0.55,WeatherLink_script,2013-01-17 02:02:00,
2013-01-16 21:07:00,40.4,39.6,29.98,East,81,2.7,6.0,97,0.00,NA,NA,0.55,WeatherLink_script,2013-01-17 02:07:00,
2013-01-16 21:12:00,40.3,39.6,29.98,East,81,0.3,2.0,97,0.00,NA,NA,0.54,WeatherLink_script,2013-01-17 02:12:00,
2013-01-16 21:17:00,40.4,39.6,29.98,East,81,4.0,38.0,97,0.00,NA,NA,0.54,WeatherLink_script,2013-01-17 02:17:00,
2013-01-16 21:23:00,40.4,39.6,29.97,East,81,2.2,7.0,97,0.00,NA,NA,0.53,WeatherLink_script,2013-01-17 02:23:00,
2013-01-16 21:29:00,40.4,39.6,29.97,East,81,0.0,0.0,97,0.00,NA,NA,0.53,WeatherLink_script,2013-01-17 02:29:00,
2013-01-16 21:34:00,40.4,39.6,29.97,East,81,0.8,3.0,97,0.00,NA,NA,0.52,WeatherLink_script,2013-01-17 02:34:00,
2013-01-16 21:40:00,40.4,39.6,29.97,East,81,1.4,3.0,97,0.00,NA,NA,0.51,WeatherLink_script,2013-01-17 02:40:00,
2013-01-16 21:46:00,40.4,39.6,29.97,East,81,0.0,0.0,97,0.00,NA,NA,0.51,WeatherLink_script,2013-01-17 02:46:00,
2013-01-16 21:51:00,40.4,39.6,29.97,East,81,0.0,0.0,97,0.00,NA,NA,0.50,WeatherLink_script,2013-01-17 02:51:00,
2013-01-16 21:56:00,40.4,39.6,29.96,East,81,3.4,15.0,97,0.00,NA,NA,0.50,WeatherLink_script,2013-01-17 02:56:00,
2013-01-16 22:01:00,40.4,39.6,29.96,East,81,0.2,2.0,97,0.00,NA,NA,0.49,WeatherLink_script,2013-01-17 03:01:00,
2013-01-16 22:06:00,40.4,39.6,29.96,East,81,0.0,0.0,97,0.00,NA,NA,0.48,WeatherLink_script,2013-01-17 03:06:00,
2013-01-16 22:12:00,40.4,39.6,29.97,East,81,1.7,5.0,97,0.00,NA,NA,0.47,WeatherLink_script,2013-01-17 03:12:00,
2013-01-16 22:17:00,40.4,39.6,29.99,East,81,0.1,1.0,97,0.00,NA,NA,0.47,WeatherLink_script,2013-01-17 03:17:00,
2013-01-16 22:22:00,40.5,39.7,29.97,East,81,2.8,4.0,97,0.00,NA,NA,0.46,WeatherLink_script,2013-01-17 03:22:00,
2013-01-16 22:27:00,40.5,39.7,29.97,East,81,4.0,7.0,97,0.00,NA,NA,0.45,WeatherLink_script,2013-01-17 03:27:00,
2013-01-16 22:32:00,40.6,39.8,29.95,East,81,3.9,6.0,97,0.00,NA,NA,0.44,WeatherLink_script,2013-01-17 03:32:00,
2013-01-16 22:37:00,40.5,39.7,29.95,East,81,1.0,5.0,97,0.01,NA,NA,0.44,WeatherLink_script,2013-01-17 03:37:00,
2013-01-16 22:42:00,40.5,39.7,29.94,East,81,0.9,4.0,97,0.01,NA,NA,0.44,WeatherLink_script,2013-01-17 03:42:00,
2013-01-16 22:47:00,40.5,39.8,29.95,East,81,1.4,6.0,97,0.01,NA,NA,0.43,WeatherLink_script,2013-01-17 03:47:00,
2013-01-16 22:52:00,40.6,39.8,29.95,East,81,0.9,3.0,97,0.01,NA,NA,0.42,WeatherLink_script,2013-01-17 03:52:00,
2013-01-16 22:57:00,40.6,39.8,29.95,East,81,3.0,24.0,97,0.01,NA,NA,0.42,WeatherLink_script,2013-01-17 03:57:00,
2013-01-16 23:00:00,40.7,40.2,29.95,East,81,1.7,8.0,98,0.00,NA,NA,0.34,WeatherLink_script,2013-01-17 04:00:00,
2013-01-16 23:02:00,40.5,39.7,29.97,East,81,1.8,5.0,97,0.01,NA,NA,0.40,WeatherLink_script,2013-01-17 04:02:00,
2013-01-16 23:04:00,40.7,39.9,29.95,East,81,4.4,8.0,97,0.00,NA,NA,0.33,WeatherLink_script,2013-01-17 04:04:00,
2013-01-16 23:06:00,40.7,39.9,29.95,East,81,3.4,7.0,97,0.00,NA,NA,0.33,WeatherLink_script,2013-01-17 04:06:00,
2013-01-16 23:07:00,40.4,39.6,29.97,East,81,1.7,15.0,97,0.01,NA,NA,0.40,WeatherLink_script,2013-01-17 04:07:00,
2013-01-16 23:08:00,40.7,39.9,29.95,East,81,4.9,7.0,97,0.00,NA,NA,0.33,WeatherLink_script,2013-01-17 04:08:00,
2013-01-16 23:10:00,40.7,40.2,29.95,SE,131,6.3,9.0,98,0.00,NA,NA,0.33,WeatherLink_script,2013-01-17 04:10:00,
2013-01-16 23:12:00,40.8,40.0,29.96,South,177,4.3,7.0,97,0.00,NA,NA,0.33,WeatherLink_script,2013-01-17 04:12:00,
2013-01-16 23:13:00,40.5,39.7,29.96,East,81,0.0,0.0,97,0.01,NA,NA,0.39,WeatherLink_script,2013-01-17 04:13:00,
2013-01-16 23:14:00,40.9,40.1,29.96,SSW,195,3.9,8.0,97,0.00,NA,NA,0.33,WeatherLink_script,2013-01-17 04:14:00,
2013-01-16 23:15:00,40.9,40.1,29.96,SSW,197,3.1,6.0,97,0.00,NA,NA,0.33,WeatherLink_script,2013-01-17 04:15:00,
2013-01-16 23:16:00,40.9,40.1,29.96,SSW,197,4.5,8.0,97,0.00,NA,NA,0.32,WeatherLink_script,2013-01-17 04:16:00,
2013-01-16 23:17:00,41.0,40.2,29.96,SSW,197,4.5,8.0,97,0.00,NA,NA,0.32,WeatherLink_script,2013-01-17 04:17:00,
2013-01-16 23:18:00,40.5,39.7,29.96,East,81,2.0,5.0,97,0.01,NA,NA,0.38,WeatherLink_script,2013-01-17 04:18:00,
2013-01-16 23:19:00,41.0,40.2,29.96,SSW,197,1.5,4.0,97,0.00,NA,NA,0.32,WeatherLink_script,2013-01-17 04:19:00,
2013-01-16 23:20:00,41.1,40.6,29.96,SSW,197,1.2,5.0,98,0.00,NA,NA,0.32,WeatherLink_script,2013-01-17 04:20:00,
2013-01-16 23:21:00,41.1,40.5,29.96,SSW,197,0.1,1.0,98,0.00,NA,NA,0.32,WeatherLink_script,2013-01-17 04:21:00,
2013-01-16 23:23:00,40.4,39.6,29.96,East,81,0.0,0.0,97,0.01,NA,NA,0.38,WeatherLink_script,2013-01-17 04:23:00,
2013-01-16 23:26:00,41.3,40.8,29.96,SSW,197,5.2,8.0,98,0.00,NA,NA,0.31,WeatherLink_script,2013-01-17 04:26:00,
2013-01-16 23:27:00,41.4,40.9,29.96,SSW,198,4.4,6.0,98,0.00,NA,NA,0.31,WeatherLink_script,2013-01-17 04:27:00,
2013-01-16 23:29:00,40.4,39.6,29.97,East,81,1.8,6.0,97,0.01,NA,NA,0.37,WeatherLink_script,2013-01-17 04:29:00,
2013-01-16 23:30:00,41.7,41.1,29.96,SSW,198,3.6,6.0,98,0.00,NA,NA,0.30,WeatherLink_script,2013-01-17 04:30:00,
2013-01-16 23:31:00,41.7,41.2,29.96,SSW,198,3.3,5.0,98,0.00,NA,NA,0.30,WeatherLink_script,2013-01-17 04:31:00,
2013-01-16 23:33:00,41.8,41.3,29.96,SSW,198,4.9,11.0,98,0.00,NA,NA,0.30,WeatherLink_script,2013-01-17 04:33:00,
2013-01-16 23:34:00,40.6,39.8,29.96,East,81,4.5,13.0,97,0.01,NA,NA,0.36,WeatherLink_script,2013-01-17 04:34:00,
2013-01-16 23:35:00,41.7,41.2,29.97,SSW,197,7.8,32.0,98,0.00,NA,NA,0.30,WeatherLink_script,2013-01-17 04:35:00,
2013-01-16 23:36:00,41.7,41.1,29.97,SSW,197,3.9,5.0,98,0.00,NA,NA,0.30,WeatherLink_script,2013-01-17 04:36:00,
2013-01-16 23:37:00,41.6,41.1,29.97,SSW,197,4.7,6.0,98,0.00,NA,NA,0.30,WeatherLink_script,2013-01-17 04:37:00,
2013-01-16 23:39:00,41.5,40.9,29.97,South,188,5.3,6.0,98,0.00,NA,NA,0.29,WeatherLink_script,2013-01-17 04:39:00,
2013-01-16 23:40:00,40.6,39.8,29.96,East,81,3.8,5.0,97,0.00,NA,NA,0.36,WeatherLink_script,2013-01-17 04:40:00,
2013-01-16 23:41:00,41.3,40.5,29.97,South,177,5.0,8.0,97,0.00,NA,NA,0.29,WeatherLink_script,2013-01-17 04:41:00,
2013-01-16 23:43:00,41.2,40.4,29.97,South,183,5.2,7.0,97,0.00,NA,NA,0.29,WeatherLink_script,2013-01-17 04:43:00,
2013-01-16 23:45:00,40.5,39.8,29.95,East,81,4.4,8.0,97,0.00,NA,NA,0.36,WeatherLink_script,2013-01-17 04:45:00,
2013-01-16 23:47:00,41.2,40.4,29.97,SSE,161,5.4,7.0,97,0.00,NA,NA,0.28,WeatherLink_script,2013-01-17 04:47:00,
2013-01-16 23:49:00,41.1,40.3,29.97,SSE,163,5.6,7.0,97,0.00,NA,NA,0.28,WeatherLink_script,2013-01-17 04:49:00,
2013-01-16 23:50:00,40.6,39.8,29.95,East,80,3.5,5.0,97,0.00,NA,NA,0.35,WeatherLink_script,2013-01-17 04:50:00,
2013-01-16 23:51:00,41.1,40.3,29.97,SSE,158,5.1,7.0,97,0.00,NA,NA,0.28,WeatherLink_script,2013-01-17 04:51:00,
2013-01-16 23:53:00,41.1,40.3,29.97,SSE,155,5.8,7.0,97,0.00,NA,NA,0.28,WeatherLink_script,2013-01-17 04:53:00,
2013-01-16 23:55:00,40.6,39.8,29.95,East,81,0.0,0.0,97,0.00,NA,NA,0.35,WeatherLink_script,2013-01-17 04:55:00,
2013-01-16 23:57:00,41.1,40.3,29.97,SSE,160,6.9,8.0,97,0.00,NA,NA,0.27,WeatherLink_script,2013-01-17 04:57:00,
2013-01-16 23:59:00,41.1,40.3,29.97,SSE,156,7.3,11.0,97,0.00,NA,NA,0.27,WeatherLink_script,2013-01-17 04:59:00,